Time;durP1;ratioP1;P1;durP2;ratioP2;P2;SDS_P1;SDS_P2;PMS_P1;PMS_P2;Temp;Humidity;BMP_temperature;BMP_pressure;BME280_temperature;BME280_humidity;BME280_pressure;Samples;Min_cycle;Max_cycle;Signal;HPM_P1;HPM_P2
2022/08/12 15:56:18;;;;;;;1.83;1.00;;;26.90;46.80;;;;;;5067375;28;20477;-67
2022/08/12 15:58:45;;;;;;;3.07;1.30;;;26.50;47.40;;;;;;5067463;28;20604;-70
2022/08/12 16:01:13;;;;;;;3.90;1.10;;;26.20;48.20;;;;;;5067395;28;20172;-68
2022/08/12 16:03:45;;;;;;;2.73;1.40;;;26.20;48.80;;;;;;5067909;28;20419;-68
2022/08/12 16:06:11;;;;;;;1.90;1.00;;;26.20;48.80;;;;;;5084573;28;20415;-68
2022/08/12 16:08:38;;;;;;;2.90;1.13;;;26.00;49.60;;;;;;5074467;28;20442;-68
2022/08/12 16:11:04;;;;;;;1.90;1.00;;;25.80;49.80;;;;;;5068082;28;20421;-68
2022/08/12 16:13:30;;;;;;;2.60;1.30;;;25.70;49.60;;;;;;5067104;28;20471;-68
2022/08/12 16:15:55;;;;;;;4.83;1.10;;;25.60;49.70;;;;;;5068986;28;20446;-68
2022/08/12 16:18:21;;;;;;;2.17;1.00;;;25.40;50.20;;;;;;5063987;28;20224;-68
2022/08/12 16:20:46;;;;;;;4.30;1.20;;;25.30;50.10;;;;;;5048874;28;20223;-68
2022/08/12 16:23:14;;;;;;;2.87;1.23;;;25.30;50.30;;;;;;5058796;28;20268;-68
2022/08/12 16:25:41;;;;;;;2.30;1.00;;;25.30;50.40;;;;;;5068873;28;20184;-69
2022/08/12 16:28:08;;;;;;;2.33;1.10;;;25.30;50.50;;;;;;5068903;28;20742;-69
2022/08/12 16:30:35;;;;;;;3.07;1.30;;;25.40;50.60;;;;;;5068585;28;20418;-68
2022/08/12 16:33:19;;;;;;;2.40;0.90;;;25.70;50.10;;;;;;5068756;28;20482;-68
2022/08/12 16:35:48;;;;;;;2.53;1.20;;;26.00;50.20;;;;;;5069084;28;20528;-68
2022/08/12 16:38:15;;;;;;;1.80;0.90;;;26.10;49.20;;;;;;5069383;28;20419;-69
2022/08/12 16:40:43;;;;;;;2.80;1.00;;;26.20;48.90;;;;;;5069207;28;20472;-68
2022/08/12 16:43:28;;;;;;;2.47;0.90;;;26.20;48.50;;;;;;5068630;28;20411;-69
2022/08/12 16:45:58;;;;;;;3.30;1.53;;;26.30;48.70;;;;;;5068864;28;20414;-68
2022/08/12 16:48:24;;;;;;;2.40;1.03;;;26.10;49.00;;;;;;5068763;28;20921;-68
2022/08/12 16:50:55;;;;;;;4.40;1.37;;;26.20;49.30;;;;;;5067622;28;20418;-68
2022/08/12 16:53:22;;;;;;;2.33;0.90;;;26.30;49.20;;;;;;5068044;28;20466;-69
2022/08/12 16:55:49;;;;;;;1.80;0.83;;;26.40;48.80;;;;;;5068319;28;20475;-69
2022/08/12 16:58:19;;;;;;;9.10;6.43;;;26.60;48.40;;;;;;5068456;28;20404;-68
2022/08/12 17:00:46;;;;;;;3.13;2.20;;;26.40;48.70;;;;;;5068207;28;20521;-69
2022/08/12 17:03:12;;;;;;;4.63;1.73;;;26.50;49.10;;;;;;5064141;28;20549;-68
2022/08/12 17:05:38;;;;;;;9.03;1.90;;;26.40;49.10;;;;;;5054908;28;21096;-68
2022/08/12 17:08:06;;;;;;;11.30;6.83;;;26.20;47.70;;;;;;5055522;28;20419;-68
2022/08/12 17:10:33;;;;;;;5.77;2.53;;;26.00;48.10;;;;;;5054973;28;20404;-69
2022/08/12 17:12:59;;;;;;;3.20;1.40;;;25.70;48.20;;;;;;5054839;28;20462;-68
2022/08/12 17:15:24;;;;;;;4.80;1.43;;;25.50;48.70;;;;;;5054638;28;20412;-69
2022/08/12 17:17:50;;;;;;;8.03;3.93;;;25.30;48.90;;;;;;5054936;28;20247;-69
2022/08/12 17:20:17;;;;;;;5.90;2.30;;;25.10;49.10;;;;;;5054842;28;20169;-70
2022/08/12 17:22:45;;;;;;;23.03;12.73;;;24.90;49.50;;;;;;5054194;28;20416;-69
2022/08/12 17:25:12;;;;;;;2.93;2.20;;;24.90;50.00;;;;;;5054771;28;20435;-69
2022/08/12 17:27:43;;;;;;;9.47;4.10;;;24.80;50.30;;;;;;5055194;28;20423;-69
2022/08/12 17:30:12;;;;;;;15.93;9.50;;;24.60;50.50;;;;;;5054788;28;20406;-69
2022/08/12 17:32:39;;;;;;;28.87;11.27;;;24.60;51.00;;;;;;5054159;28;20451;-69
2022/08/12 17:35:28;;;;;;;2.70;1.60;;;24.50;51.40;;;;;;5054645;28;20440;-69
2022/08/12 17:38:05;;;;;;;28.87;18.07;;;24.40;51.60;;;;;;5054174;28;20400;-69
2022/08/12 17:40:32;;;;;;;7.47;4.70;;;24.30;52.00;;;;;;5054553;28;20446;-69
2022/08/12 17:43:00;;;;;;;6.73;4.60;;;24.20;52.10;;;;;;5054006;28;20889;-69
2022/08/12 17:45:31;;;;;;;11.00;6.43;;;24.10;52.10;;;;;;5054371;28;20494;-69
2022/08/12 17:48:02;;;;;;;6.57;3.63;;;24.00;52.40;;;;;;5054395;28;20396;-68
2022/08/12 17:50:33;;;;;;;5.43;2.73;;;24.10;52.50;;;;;;5053158;28;20416;-69
2022/08/12 17:52:59;;;;;;;2.90;1.17;;;24.10;52.80;;;;;;5053459;28;20459;-69
2022/08/12 17:55:25;;;;;;;3.17;1.53;;;24.10;52.80;;;;;;5054034;28;21900;-68
2022/08/12 17:57:54;;;;;;;2.67;1.30;;;24.10;52.60;;;;;;5054085;28;20185;-68
2022/08/12 18:00:20;;;;;;;2.30;1.03;;;24.10;53.30;;;;;;5053791;28;20407;-69
2022/08/12 18:02:49;;;;;;;1.60;0.77;;;24.10;53.60;;;;;;5053530;28;20415;-69
2022/08/12 18:05:16;;;;;;;2.23;0.97;;;24.10;52.60;;;;;;5054054;28;20220;-68
2022/08/12 18:07:42;;;;;;;3.70;1.30;;;24.10;53.30;;;;;;5053980;28;20415;-69
2022/08/12 18:10:09;;;;;;;6.70;0.93;;;24.10;53.50;;;;;;5053917;28;20447;-68
2022/08/12 18:12:37;;;;;;;3.00;1.40;;;24.00;53.70;;;;;;5053683;28;20456;-68
2022/08/12 18:15:11;;;;;;;1.87;0.80;;;23.90;53.70;;;;;;5052862;28;20404;-69
2022/08/12 18:17:45;;;;;;;1.60;0.80;;;23.90;54.00;;;;;;5054091;28;20407;-69
2022/08/12 18:20:14;;;;;;;8.47;1.00;;;23.80;54.80;;;;;;5053890;28;20392;-70
2022/08/12 18:22:41;;;;;;;2.87;0.83;;;23.70;55.50;;;;;;5053229;28;20427;-68
2022/08/12 18:25:10;;;;;;;2.57;1.00;;;23.50;55.80;;;;;;5053690;28;20416;-69
2022/08/12 18:27:37;;;;;;;2.17;0.87;;;23.30;55.60;;;;;;5053739;28;20408;-69
2022/08/12 18:30:06;;;;;;;1.80;0.70;;;23.20;56.60;;;;;;5053164;28;20412;-69
2022/08/12 18:32:35;;;;;;;1.97;0.90;;;23.00;56.70;;;;;;5052978;28;20525;-69
2022/08/12 18:35:03;;;;;;;1.80;0.90;;;22.90;56.60;;;;;;5053434;28;20419;-69
2022/08/12 18:37:30;;;;;;;1.93;0.90;;;22.70;57.10;;;;;;5053301;28;20745;-69
2022/08/12 18:42:44;;;;;;;2.40;1.20;;;22.40;57.50;;;;;;5052996;28;20407;-70
2022/08/12 18:45:14;;;;;;;2.03;0.90;;;22.20;57.90;;;;;;5053145;28;20482;-69
2022/08/12 18:47:43;;;;;;;3.23;1.30;;;22.00;58.40;;;;;;5052980;28;20438;-69
2022/08/12 18:50:10;;;;;;;10.40;1.30;;;21.80;59.10;;;;;;5052831;28;20435;-69
2022/08/12 18:52:37;;;;;;;2.03;0.90;;;21.70;59.20;;;;;;5051983;28;20492;-69
2022/08/12 18:55:05;;;;;;;2.90;1.10;;;21.50;60.30;;;;;;5052850;28;20439;-69
2022/08/12 18:57:34;;;;;;;2.43;0.87;;;21.40;60.50;;;;;;5052965;28;20408;-69
2022/08/12 19:00:01;;;;;;;1.90;0.83;;;21.30;60.30;;;;;;5052790;28;20404;-69
2022/08/12 19:02:27;;;;;;;3.50;1.23;;;21.10;60.60;;;;;;5052568;28;20420;-69
2022/08/12 19:04:53;;;;;;;2.47;0.83;;;21.00;60.70;;;;;;5052403;28;20462;-69
2022/08/12 19:07:24;;;;;;;1.87;0.87;;;20.90;60.90;;;;;;5052666;28;20170;-69
2022/08/12 19:09:52;;;;;;;2.10;1.10;;;20.70;61.20;;;;;;5052509;28;20418;-69
2022/08/12 19:15:06;;;;;;;1.73;0.77;;;20.60;63.20;;;;;;5052631;28;20484;-69
2022/08/12 19:17:33;;;;;;;7.50;1.40;;;20.40;64.90;;;;;;5052542;28;20768;-68
2022/08/12 19:20:01;;;;;;;8.13;1.97;;;20.30;65.50;;;;;;5052396;28;20433;-68
2022/08/12 19:22:31;;;;;;;2.80;1.57;;;20.20;66.60;;;;;;5055893;28;20457;-69
2022/08/12 19:27:44;;;;;;;6.70;1.67;;;20.00;67.10;;;;;;5072133;28;20418;-69
2022/08/12 19:31:38;;;;;;;3.60;1.50;;;20.00;67.40;;;;;;5072265;28;20440;-69
2022/08/12 19:33:03;;;;;;;6.07;1.80;;;19.90;67.50;;;;;;5071947;28;20581;-69
2022/08/12 19:35:30;;;;;;;3.30;1.87;;;19.80;68.00;;;;;;5072592;28;20409;-69
2022/08/12 19:37:57;;;;;;;5.13;2.40;;;19.70;68.30;;;;;;5072482;28;20572;-69
2022/08/12 19:40:27;;;;;;;6.43;2.83;;;19.60;68.60;;;;;;5072519;28;20437;-69
2022/08/12 19:42:54;;;;;;;5.70;3.27;;;19.50;69.60;;;;;;5072288;28;20396;-69
2022/08/12 19:45:20;;;;;;;10.37;5.87;;;19.40;70.00;;;;;;5072648;28;20419;-69
2022/08/12 19:47:46;;;;;;;16.13;8.27;;;19.40;70.10;;;;;;5072827;28;20407;-69
2022/08/12 19:50:15;;;;;;;2.40;1.23;;;19.20;69.20;;;;;;5072482;28;20457;-69
2022/08/12 19:52:41;;;;;;;2.93;1.30;;;19.40;62.50;;;;;;5072304;28;20201;-69
2022/08/12 19:55:08;;;;;;;2.10;0.93;;;19.60;61.80;;;;;;5072489;28;20442;-69
2022/08/12 19:57:34;;;;;;;3.47;1.27;;;19.80;59.40;;;;;;5052631;28;20650;-69
2022/08/12 20:00:03;;;;;;;4.03;1.27;;;20.00;58.90;;;;;;5052693;28;20526;-69
2022/08/12 20:02:32;;;;;;;2.00;0.70;;;20.20;58.60;;;;;;5052264;28;20416;-69
2022/08/12 20:05:04;;;;;;;3.30;0.80;;;20.30;59.40;;;;;;5052233;28;20412;-69
2022/08/12 20:07:32;;;;;;;21.40;1.10;;;20.20;59.60;;;;;;5052651;28;20772;-69
2022/08/12 20:09:58;;;;;;;1.60;0.63;;;20.20;60.20;;;;;;5051907;28;20466;-70
2022/08/12 20:12:31;;;;;;;1.70;0.73;;;20.10;60.20;;;;;;5051502;28;20448;-69
2022/08/12 20:15:00;;;;;;;1.50;0.63;;;20.10;59.90;;;;;;5052200;28;20399;-69
2022/08/12 20:17:26;;;;;;;3.53;0.90;;;20.10;60.60;;;;;;5051981;28;20415;-70
2022/08/12 20:19:53;;;;;;;4.80;1.27;;;20.10;60.90;;;;;;5052061;28;20491;-70
2022/08/12 20:22:21;;;;;;;2.00;0.77;;;20.00;61.10;;;;;;5054638;28;20192;-70
2022/08/12 20:24:47;;;;;;;2.37;1.03;;;20.00;61.30;;;;;;5071863;28;20407;-69
2022/08/12 20:27:14;;;;;;;2.43;1.20;;;19.90;62.30;;;;;;5071766;28;20883;-69
2022/08/12 20:29:42;;;;;;;3.10;1.10;;;19.70;62.80;;;;;;5071940;28;20697;-70
2022/08/12 20:32:08;;;;;;;2.13;0.70;;;19.70;63.20;;;;;;5071385;28;20455;-69
2022/08/12 20:34:37;;;;;;;1.77;0.90;;;19.60;63.40;;;;;;5072001;28;20411;-69
2022/08/12 20:37:06;;;;;;;3.70;1.00;;;19.60;63.20;;;;;;5071819;28;20533;-69
2022/08/12 20:39:32;;;;;;;1.87;0.90;;;19.50;63.20;;;;;;5074352;28;20802;-70
2022/08/12 20:42:04;;;;;;;1.90;0.90;;;19.60;64.80;;;;;;5075080;28;20520;-69
2022/08/12 20:44:30;;;;;;;3.90;1.10;;;19.50;65.10;;;;;;5075604;28;20165;-69
2022/08/12 20:47:05;;;;;;;6.10;1.30;;;19.40;65.00;;;;;;5075511;28;21205;-69
2022/08/12 20:49:32;;;;;;;2.27;0.97;;;19.30;64.70;;;;;;5076038;28;20391;-69
2022/08/12 20:51:58;;;;;;;2.13;0.77;;;19.30;66.00;;;;;;5074461;28;20944;-69
2022/08/12 20:54:24;;;;;;;2.53;1.10;;;19.20;66.00;;;;;;5075255;28;20890;-69
2022/08/12 20:56:50;;;;;;;1.83;0.70;;;19.20;67.20;;;;;;5060620;28;20623;-69
2022/08/12 20:59:19;;;;;;;3.40;0.90;;;19.00;67.00;;;;;;5055308;28;20432;-69
2022/08/12 21:01:45;;;;;;;2.33;0.87;;;19.00;67.70;;;;;;5054987;28;20415;-69
2022/08/12 21:06:56;;;;;;;2.57;1.10;;;18.80;68.00;;;;;;5055447;28;20232;-68
2022/08/12 21:09:44;;;;;;;4.27;0.97;;;18.80;68.30;;;;;;5055626;28;20534;-69
2022/08/12 21:12:17;;;;;;;2.00;1.10;;;18.80;68.20;;;;;;5055164;28;20455;-69
2022/08/12 21:14:44;;;;;;;2.67;1.00;;;18.70;67.60;;;;;;5055866;28;20416;-69
2022/08/12 21:17:10;;;;;;;2.67;0.90;;;18.70;68.40;;;;;;5054980;28;20419;-68
2022/08/12 21:19:36;;;;;;;1.90;0.97;;;18.70;68.90;;;;;;5054945;28;20497;-69
2022/08/12 21:22:03;;;;;;;4.83;1.10;;;18.60;68.90;;;;;;5055403;28;20416;-68
2022/08/12 21:24:29;;;;;;;9.33;1.27;;;18.50;69.00;;;;;;5075185;28;20411;-69
2022/08/12 21:26:57;;;;;;;1.90;0.90;;;18.40;69.50;;;;;;5075035;28;20911;-69
2022/08/12 21:29:22;;;;;;;1.80;1.00;;;18.30;69.90;;;;;;5074946;28;20424;-69
2022/08/12 21:31:48;;;;;;;2.70;1.30;;;18.30;69.70;;;;;;5074743;28;20500;-68
2022/08/12 21:34:18;;;;;;;1.70;0.77;;;18.20;70.10;;;;;;5074798;28;20176;-69
2022/08/12 21:36:47;;;;;;;1.83;0.90;;;18.10;70.20;;;;;;5074616;28;20169;-68
2022/08/12 21:39:15;;;;;;;2.60;1.13;;;18.10;70.40;;;;;;5074643;28;20502;-69
2022/08/12 21:41:41;;;;;;;2.43;0.80;;;18.00;70.90;;;;;;5074212;28;20423;-69
2022/08/12 21:44:10;;;;;;;4.23;0.83;;;18.00;71.20;;;;;;5074460;28;20418;-69
2022/08/12 21:46:46;;;;;;;2.40;1.10;;;17.90;72.10;;;;;;5074654;28;20730;-69
2022/08/12 21:49:15;;;;;;;4.07;1.10;;;17.80;72.90;;;;;;5074423;28;20411;-69
2022/08/12 21:51:41;;;;;;;4.17;1.13;;;17.80;72.70;;;;;;5073220;28;20462;-69
2022/08/12 21:54:08;;;;;;;2.23;1.03;;;17.70;73.00;;;;;;5074238;28;20423;-68
2022/08/12 21:56:34;;;;;;;3.37;1.63;;;17.70;73.30;;;;;;5061648;28;20870;-69
2022/08/12 21:59:00;;;;;;;2.40;0.90;;;17.60;73.00;;;;;;5054143;28;20439;-69
2022/08/12 22:01:25;;;;;;;2.00;0.93;;;17.50;73.60;;;;;;5053566;28;20166;-69
2022/08/12 22:06:36;;;;;;;3.10;1.37;;;17.50;74.50;;;;;;5053929;28;20212;-68
2022/08/12 22:09:06;;;;;;;2.60;0.93;;;17.40;74.00;;;;;;5053795;28;20413;-69
2022/08/12 22:11:33;;;;;;;2.17;1.13;;;17.30;74.50;;;;;;5053617;28;20428;-69
2022/08/12 22:13:58;;;;;;;2.23;1.00;;;17.30;75.10;;;;;;5053808;28;20412;-69
2022/08/12 22:16:25;;;;;;;17.33;1.27;;;17.20;74.90;;;;;;5053884;28;20409;-68
2022/08/12 22:18:50;;;;;;;2.50;1.33;;;17.20;74.90;;;;;;5053680;28;20197;-68
2022/08/12 22:21:19;;;;;;;3.13;1.47;;;17.10;75.40;;;;;;5053245;28;20417;-68
2022/08/12 22:23:45;;;;;;;2.40;0.87;;;17.00;75.80;;;;;;5068100;28;20516;-69
2022/08/12 22:26:13;;;;;;;4.63;1.20;;;17.00;76.30;;;;;;5073578;28;20452;-69
2022/08/12 22:31:25;;;;;;;2.30;0.97;;;16.80;76.70;;;;;;5073073;28;20438;-70
2022/08/12 22:33:53;;;;;;;4.70;1.27;;;16.70;77.40;;;;;;5073345;28;20779;-69
2022/08/12 22:36:24;;;;;;;2.13;1.00;;;16.70;77.60;;;;;;5073561;28;20173;-69
2022/08/12 22:38:55;;;;;;;3.93;1.13;;;16.60;77.70;;;;;;5073496;28;20411;-68
2022/08/12 22:49:37;;;;;;;1.70;0.80;;;16.40;79.10;;;;;;5073253;28;20426;-69
2022/08/12 22:52:04;;;;;;;1.90;0.97;;;16.40;79.60;;;;;;5072238;28;20467;-69
2022/08/12 22:54:30;;;;;;;1.60;0.90;;;16.30;79.40;;;;;;5073177;28;20626;-69
2022/08/12 22:56:56;;;;;;;3.87;0.87;;;16.20;79.00;;;;;;5057980;28;20418;-68
2022/08/12 22:59:23;;;;;;;2.17;1.00;;;16.20;79.40;;;;;;5052986;28;20483;-68
2022/08/12 23:01:51;;;;;;;2.43;0.97;;;16.10;79.30;;;;;;5052307;28;20269;-68
2022/08/12 23:04:19;;;;;;;1.77;0.80;;;16.10;79.40;;;;;;5053122;28;20409;-69
2022/08/12 23:06:53;;;;;;;2.43;1.10;;;16.10;81.00;;;;;;5053098;28;20419;-68
2022/08/12 23:09:25;;;;;;;2.37;1.00;;;16.10;79.90;;;;;;5052895;28;20400;-69
2022/08/12 23:11:52;;;;;;;2.37;1.10;;;16.00;80.20;;;;;;5052284;28;20468;-69
2022/08/12 23:14:19;;;;;;;2.03;1.03;;;16.00;80.60;;;;;;5052599;28;20766;-69
2022/08/12 23:16:45;;;;;;;1.77;0.87;;;15.90;81.10;;;;;;5052627;28;20832;-69
2022/08/12 23:19:17;;;;;;;1.87;1.10;;;15.90;81.00;;;;;;5052621;28;20499;-69
2022/08/12 23:21:52;;;;;;;3.00;1.10;;;15.80;81.00;;;;;;5052398;28;20412;-69
2022/08/12 23:24:20;;;;;;;1.90;0.90;;;15.80;81.50;;;;;;5052769;28;20857;-68
2022/08/12 23:29:32;;;;;;;1.90;1.20;;;15.70;82.90;;;;;;5052448;28;20395;-69
2022/08/12 23:31:58;;;;;;;7.93;0.93;;;15.70;83.20;;;;;;5051824;28;20916;-69
2022/08/12 23:34:26;;;;;;;2.10;1.10;;;15.70;83.20;;;;;;5052384;28;20416;-69
2022/08/12 23:36:53;;;;;;;1.97;1.10;;;15.60;83.40;;;;;;5052553;28;20499;-69
2022/08/12 23:39:21;;;;;;;1.87;0.77;;;15.60;83.70;;;;;;5052339;28;20404;-69
2022/08/12 23:41:48;;;;;;;2.53;0.73;;;15.60;84.10;;;;;;5052063;28;20423;-69
2022/08/12 23:44:15;;;;;;;2.03;1.00;;;15.50;84.00;;;;;;5052210;28;20419;-69
2022/08/12 23:46:41;;;;;;;1.90;0.90;;;15.50;84.40;;;;;;5052045;28;20416;-69
2022/08/12 23:49:07;;;;;;;2.10;1.17;;;15.50;85.20;;;;;;5052229;28;20935;-69
2022/08/12 23:51:35;;;;;;;3.73;0.90;;;15.40;84.60;;;;;;5051456;28;20536;-69
2022/08/12 23:54:05;;;;;;;1.70;0.80;;;15.30;85.50;;;;;;5052157;28;20420;-69
2022/08/12 23:56:33;;;;;;;2.00;0.90;;;15.30;85.70;;;;;;5052064;28;20503;-69
2022/08/12 23:59:00;;;;;;;2.73;1.37;;;15.20;86.10;;;;;;5052181;28;20447;-69
